Fort Motte, South Carolina
Current Conditions -  °F | °C
As of 3:58 PM on Tuesday 25 Nov 2014 (Local Time) from KMMT Reporting Station
Light Rain Light Rain  
Wind Chill: 60°   Ceiling: 11000
Heat Index: 60°   Visibility: 5mi
Dew Point: 59°   Wind: 0mph
Humidity: 96%   Direction: NA
Pressure: 30.02"   Gusts: NA
Location:  33.7122°N, 80.8747°W
Report Text: KMMT 252058Z 00000KT 5SM -RA BR SCT035 OVC110 16/15 A3002 RMK AO2A SLP168 P0000 60001 T01550149 50007
Loading
Personal Weather Stations






























Interactive Weather Map New forecast layout! Learn more

10-Day Weather Forecast

Advertisements
Track Severe Weather on mobile